Impacts METAR Board
IDs:

KCHS - Charleston Intl, SC, US

Updated at: 0000 UTC 05 Jul 2022
Potential Impact None Slight Moderate High
Time 04/12Z 04/13Z 04/14Z 04/15Z 04/16Z 04/17Z 04/18Z 04/19Z 04/20Z 04/21Z 04/22Z 04/23Z 05/00Z
Temp82 84 86 88 90 91 91 72 74 75 75 76 76
Dewpt77 76 76 76 76 75 75 68 72 72 73 74 73
Altim30.09 30.09 30.10 30.10 30.11 30.08 30.07 30.12 30.09 30.10 30.07 30.05 30.10
VIS10 10 10 10 10 10 10 2 10 10 10 10 10
CIG-- -- -- -- -- 60 250 35 50 110 90 150 150
CoverFEWFEWFEWFEWSCTBKNBKNOVCBKNOVCOVCOVCOVC
FltCatVFRVFRVFRVFRVFRVFRVFRIFRVFRVFRVFRVFRVFR
WX------------VCTS+TSRA BRVCTS -RA-RA-RA----
WDir200210200190027002021005034050
WSpd7 9 7 5 6 3 5 10 7 3 3 4 7
WGst-- -- -- -- -- -- -- 35 -- -- -- -- --
R03/21
XWnd -0 1 -0 -1 VRB 3 VRB 1 1 VRB -1 3 -3
XGst -- -- -- -- -- -- -- 2 -- -- -- -- --
R15/33
XWnd -6 -8 -6 -3 VRB -3 VRB 8 -6 VRB 3 1 7
XGst -- -- -- -- -- -- -- 28 -- -- -- -- --
Raw hourly METARs
KCHS 041156Z 20007KT 10SM FEW020 FEW055 28/25 A3009 RMK AO2 SLP187 70006 T02780250 10278 20250 51006
KCHS 041256Z 21009KT 10SM FEW020 29/24 A3009 RMK AO2 SLP190 T02890244
KCHS 041356Z 20007KT 10SM FEW025 30/24 A3010 RMK AO2 SLP192 T03000244
KCHS 041456Z 19005KT 10SM FEW030 31/24 A3010 RMK AO2 SLP193 T03110244 51006
KCHS 041556Z VRB06KT 10SM SCT030 32/24 A3011 RMK AO2 SLP194 T03220244
KCHS 041656Z 27003KT 10SM SCT035 BKN060 33/24 A3008 RMK AO2 LTG DSNT N AND NE SLP186 CB DSNT NE T03280239
KCHS 041756Z VRB05KT 10SM VCTS SCT035CB BKN250 33/24 A3007 RMK AO2 LTG DSNT NW-NE TSE45 SLP181 OCNL LTGICCG N-NE TS VC N-NE MOV SE T03280239 10344 20278 58012
KCHS 041901Z 02010G35KT 350V060 2SM R15/1800VP6000FT +TSRA BR FEW009 BKN035CB OVC060 22/20 A3012 RMK AO2 PK WND 03028/1857 LTG DSNT ALQDS FRQ LTGICCG ALQDS TS ALQDS MOV S P0007 T02220200
KCHS 041956Z 21007KT 10SM VCTS -RA FEW035CB BKN050 BKN070 23/22 A3009 RMK AO2 PK WND 03028/1857 LTG DSNT ALQDS TSE48 SLP188 OCNL LTGIC SW-NW TS VC SW-NW MOV S P0101 T02330222
KCHS 042101Z VRB03KT 10SM -RA FEW035 SCT090 OVC110 24/22 A3010 RMK AO2 LTG DSNT SW AND W TSE01 TS DSIPTD CB DSNT SW AND W P0000 T02390222
KCHS 042156Z 05003KT 10SM -RA SCT050 BKN090 OVC110 24/23 A3007 RMK AO2 TSE01 SLP183 P0001 T02390228
KCHS 042256Z 34004KT 10SM FEW040 SCT090 OVC150 24/23 A3005 RMK AO2 RAE48 SLP177 P0001 T02440233
KCHS 042356Z 05007KT 10SM FEW015 SCT090 OVC150 24/23 A3010 RMK AO2 SLP190 60103 T02440228 10339 20222 55004



Page loaded:  00:39 UTC  |   05:39 PM Pacific  |   06:39 PM Mountain  |   07:39 PM Central  |   08:39 PM Eastern

 

ADVISORIES

FORECASTS

FORECASTS

OBSERVATIONS

USER TOOLS

ABOUT US